Weather History for PAFE - April, 2013

Change the Weather History Date:

Wednesday, April 24, 2013

  Actual Average Record
Temperature  
Mean Temperature 44 °F -  
Max Temperature 48 °F 47 °F 64 °F (1997)
Min Temperature 39 °F 33 °F 28 °F (2002)
Degree Days  
Heating Degree Days 22    
Moisture  
Dew Point 38 °F    
Average Humidity 79    
Maximum Humidity 87    
Minimum Humidity 70    
Precipitation  
Precipitation 0.00 in - - ()
Sea Level Pressure  
Sea Level Pressure 30.18 in    
Wind  
Wind Speed 6 mph (SE)    
Max Wind Speed 13 mph    
Max Gust Speed 17 mph    
Visibility 10 miles    
Events      
Averages and records for this station are not official NWS values.
T = Trace of Precipitation, MM = Missing Value Source: NWS Daily Summary

Daily Weather History Graph

Daily Weather History Graph

Search for Another Location

Airport or City:

Trip Planner

Search our weather history database for the weather conditions in past years. The results will help you decide how hot, cold, wet, or windy it might be!

Date:

Astronomy

Apr. 24, 2013 Rise Set
Actual Time 5:23 AM AKDT 8:25 PM AKDT
Civil Twilight 4:39 AM AKDT 9:09 PM AKDT
Nautical Twilight 3:40 AM AKDT 10:09 PM AKDT
Astronomical Twilight 2:16 AM AKDT 11:37 PM AKDT
Moon 7:32 PM AKDT (4/24) 4:45 AM AKDT (4/24)
Length of Visible Light 16h 29m
Length of Day
15h 01m
Waxing Gibbous, 99% of the Moon is Illuminated
Apr 24
Waxing Gibbous
Apr 25
Full
May 2
Last Quarter
May 9
New
May 17
First Quarter

Hourly Weather History & Observations

Time (AKDT) Temp. Windchill Dew Point Humidity Pressure Visibility Wind Dir Wind Speed Gust Speed Precip Events Conditions
12:16 AM 41.0 °F - 37.4 °F 87% 30.48 in 10.0 mi Calm Calm - N/A   Overcast
12:36 AM 41.0 °F - 37.4 °F 87% 30.47 in 10.0 mi Calm Calm - N/A   Overcast
12:56 AM 41.0 °F - 37.4 °F 87% 30.46 in 10.0 mi Calm Calm - N/A   Overcast
1:16 AM 41.0 °F - 37.4 °F 87% 30.45 in 10.0 mi Calm Calm - N/A   Overcast
1:36 AM 39.2 °F - 35.6 °F 87% 30.44 in 10.0 mi Calm Calm - N/A   Overcast
1:56 AM 39.2 °F - 35.6 °F 87% 30.43 in 10.0 mi Calm Calm - N/A   Overcast
2:16 AM 41.0 °F 37.1 °F 35.6 °F 81% 30.42 in 10.0 mi East 5.8 mph - N/A   Overcast
2:36 AM 41.0 °F 39.0 °F 35.6 °F 81% 30.42 in 10.0 mi ESE 3.5 mph - N/A   Overcast
2:56 AM 41.0 °F 35.8 °F 35.6 °F 81% 30.41 in 10.0 mi ESE 8.1 mph - N/A   Overcast
3:16 AM 42.8 °F 38.6 °F 33.8 °F 70% 30.40 in 10.0 mi ESE 6.9 mph - N/A   Overcast
3:36 AM 41.0 °F 37.1 °F 33.8 °F 76% 30.39 in 10.0 mi ESE 5.8 mph - N/A   Overcast
3:56 AM 42.8 °F 38.6 °F 33.8 °F 70% 30.38 in 10.0 mi ESE 6.9 mph - N/A   Overcast
4:16 AM 42.8 °F 38.0 °F 35.6 °F 76% 30.37 in 10.0 mi ESE 8.1 mph - N/A   Overcast
4:36 AM 42.8 °F 38.6 °F 35.6 °F 76% 30.37 in 10.0 mi ESE 6.9 mph - N/A   Overcast
4:56 AM 42.8 °F 37.0 °F 35.6 °F 76% 30.35 in 10.0 mi ESE 10.4 mph - N/A   Overcast
5:16 AM 42.8 °F 38.0 °F 37.4 °F 81% 30.34 in 10.0 mi ESE 8.1 mph - N/A   Overcast
5:36 AM 42.8 °F 38.0 °F 37.4 °F 81% 30.34 in 10.0 mi ESE 8.1 mph - N/A   Overcast
5:56 AM 42.8 °F 37.0 °F 35.6 °F 76% 30.33 in 10.0 mi SE 10.4 mph - N/A   Overcast
6:16 AM 41.0 °F 36.4 °F 35.6 °F 81% 30.32 in 10.0 mi ESE 6.9 mph - N/A   Overcast
6:36 AM 41.0 °F 35.2 °F 37.4 °F 87% 30.31 in 9.0 mi ESE 9.2 mph - N/A   Overcast
6:56 AM 41.0 °F 34.7 °F 37.4 °F 87% 30.30 in 8.0 mi East 10.4 mph - N/A   Overcast
7:16 AM 41.0 °F 34.7 °F 37.4 °F 87% 30.29 in 7.0 mi ESE 10.4 mph - N/A   Overcast
7:36 AM 42.8 °F 37.5 °F 37.4 °F 81% 30.29 in 10.0 mi ESE 9.2 mph - N/A   Overcast
7:56 AM 42.8 °F 38.0 °F 37.4 °F 81% 30.29 in 6.0 mi ESE 8.1 mph - N/A   Overcast
8:16 AM 42.8 °F 37.5 °F 37.4 °F 81% 30.28 in 8.0 mi ESE 9.2 mph - N/A   Overcast
8:36 AM 42.8 °F 36.2 °F 37.4 °F 81% 30.27 in 9.0 mi ESE 12.7 mph 16.1 mph N/A   Overcast
8:56 AM 42.8 °F 37.5 °F 39.2 °F 87% 30.27 in 10.0 mi ESE 9.2 mph - N/A   Overcast
9:16 AM 42.8 °F 38.0 °F 39.2 °F 87% 30.26 in 10.0 mi ESE 8.1 mph - N/A   Overcast
9:36 AM 44.6 °F 40.7 °F 39.2 °F 81% 30.25 in 10.0 mi ESE 6.9 mph - N/A   Overcast
9:56 AM 44.6 °F 40.2 °F 39.2 °F 81% 30.24 in 10.0 mi ESE 8.1 mph - N/A   Overcast
10:16 AM 44.6 °F 39.7 °F 39.2 °F 81% 30.23 in 10.0 mi SSE 9.2 mph - N/A   Overcast
10:36 AM 44.6 °F 39.7 °F 39.2 °F 81% 30.23 in 10.0 mi SE 9.2 mph - N/A   Overcast
10:56 AM 44.6 °F 40.2 °F 39.2 °F 81% 30.22 in 10.0 mi SSE 8.1 mph - N/A   Overcast
11:16 AM 46.4 °F 41.9 °F 41.0 °F 81% 30.21 in 10.0 mi SSE 9.2 mph - N/A   Overcast
11:36 AM 46.4 °F 41.5 °F 41.0 °F 81% 30.20 in 10.0 mi SE 10.4 mph - N/A   Overcast
11:56 AM 46.4 °F 41.5 °F 41.0 °F 81% 30.19 in 10.0 mi SSE 10.4 mph - N/A   Overcast
12:16 PM 46.4 °F 41.5 °F 41.0 °F 81% 30.18 in 10.0 mi SE 10.4 mph 17.3 mph N/A   Overcast
12:36 PM 46.4 °F 41.9 °F 41.0 °F 81% 30.17 in 10.0 mi SE 9.2 mph 16.1 mph N/A   Overcast
12:56 PM 46.4 °F 40.7 °F 41.0 °F 81% 30.16 in 10.0 mi SE 12.7 mph - N/A   Overcast
1:16 PM 46.4 °F 40.7 °F 42.8 °F 87% 30.15 in 10.0 mi SSE 12.7 mph - N/A   Overcast
1:36 PM 46.4 °F 41.9 °F 42.8 °F 87% 30.14 in 10.0 mi SSE 9.2 mph - N/A   Overcast
1:56 PM 46.4 °F 41.9 °F 42.8 °F 87% 30.13 in 10.0 mi SSE 9.2 mph - N/A   Overcast
2:16 PM 46.4 °F 41.9 °F 42.8 °F 87% 30.12 in 10.0 mi SSE 9.2 mph - N/A   Overcast
2:36 PM 46.4 °F 41.9 °F 42.8 °F 87% 30.12 in 10.0 mi SSE 9.2 mph - N/A   Overcast
2:56 PM 48.2 °F - 42.8 °F 82% 30.11 in 10.0 mi SSE 9.2 mph - N/A   Overcast
3:16 PM 48.2 °F - 39.2 °F 71% 30.11 in 10.0 mi South 10.4 mph - N/A   Overcast
3:36 PM 48.2 °F - 39.2 °F 71% 30.10 in 10.0 mi SSE 9.2 mph - N/A   Overcast
3:56 PM 48.2 °F - 39.2 °F 71% 30.08 in 10.0 mi SSE 10.4 mph 17.3 mph N/A   Overcast
4:16 PM 48.2 °F - 39.2 °F 71% 30.07 in 10.0 mi SSE 8.1 mph - N/A   Overcast
4:36 PM 46.4 °F 41.9 °F 39.2 °F 76% 30.06 in 10.0 mi SSE 9.2 mph - N/A   Overcast
4:56 PM 46.4 °F 42.4 °F 39.2 °F 76% 30.05 in 10.0 mi SSE 8.1 mph - N/A   Mostly Cloudy
5:16 PM 46.4 °F 41.9 °F 39.2 °F 76% 30.04 in 10.0 mi ESE 9.2 mph - N/A   Mostly Cloudy
5:36 PM 46.4 °F 42.9 °F 37.4 °F 71% 30.03 in 10.0 mi SE 6.9 mph 16.1 mph N/A   Scattered Clouds
5:56 PM 46.4 °F 41.5 °F 37.4 °F 71% 30.01 in 10.0 mi SSE 10.4 mph - N/A   Clear
6:56 PM 46.4 °F 42.4 °F 37.4 °F 71% 29.98 in 10.0 mi SSE 8.1 mph - N/A   Scattered Clouds
7:16 PM 46.4 °F 42.9 °F 37.4 °F 71% 29.98 in 10.0 mi SE 6.9 mph - N/A   Mostly Cloudy
7:36 PM 46.4 °F 41.5 °F 37.4 °F 71% 29.97 in 10.0 mi SE 10.4 mph - N/A   Overcast
7:56 PM 44.6 °F 40.7 °F 37.4 °F 76% 29.96 in 10.0 mi SE 6.9 mph - N/A   Overcast
8:16 PM 44.6 °F 41.4 °F 37.4 °F 76% 29.95 in 10.0 mi SE 5.8 mph - N/A   Overcast
8:36 PM 44.6 °F 40.7 °F 37.4 °F 76% 29.95 in 10.0 mi SSE 6.9 mph - N/A   Overcast
8:56 PM 44.6 °F 40.2 °F 37.4 °F 76% 29.95 in 10.0 mi SE 8.1 mph - N/A   Overcast
9:16 PM 44.6 °F 39.7 °F 37.4 °F 76% 29.94 in 10.0 mi SSE 9.2 mph - N/A   Overcast
9:36 PM 44.6 °F 40.2 °F 37.4 °F 76% 29.93 in 10.0 mi SSE 8.1 mph - N/A   Overcast
9:56 PM 44.6 °F 40.2 °F 37.4 °F 76% 29.93 in 10.0 mi SSE 8.1 mph - N/A   Overcast
10:16 PM 44.6 °F 39.7 °F 37.4 °F 76% 29.92 in 10.0 mi SE 9.2 mph - N/A   Overcast
10:36 PM 44.6 °F 39.2 °F 37.4 °F 76% 29.91 in 10.0 mi SE 10.4 mph - N/A   Overcast
10:56 PM 44.6 °F 40.2 °F 37.4 °F 76% 29.90 in 10.0 mi SE 8.1 mph - N/A   Overcast
11:16 PM 44.6 °F 39.2 °F 37.4 °F 76% 29.89 in 10.0 mi SE 10.4 mph - N/A   Overcast
11:36 PM 44.6 °F 39.7 °F 37.4 °F 76% 29.88 in 10.0 mi SE 9.2 mph - N/A   Overcast
11:56 PM 44.6 °F 39.7 °F 37.4 °F 76% 29.87 in 10.0 mi SE 9.2 mph - N/A   Overcast